KLAX/LAX METAR and TAF weather

Enter ICAO airport designator
Station Type Date Time Source
KLAX METAR 2020/07/08 21:53 UTC NOAA

KLAX 082153Z 25010KT 10SM CLR 23/16 A2987 RMK AO2 SLP113 T02280156


Station Type Date Time Source
KLAX Decoded METAR 2020/07/08 21:53 UTC NOAA

LOS ANGELES INTERNTL AIRPORT, CA, United States (KLAX) 33-56N 118-23W 46M
Jul 08, 2020 - 05:53 PM EDT / 2020.07.08 2153 UTC
Wind: from the WSW (250 degrees) at 12 MPH (10 KT):0
Visibility: 10 mile(s):0
Sky conditions: clear
Temperature: 73.0 F (22.8 C)
Dew Point: 60.1 F (15.6 C)
Relative Humidity: 63%
Pressure (altimeter): 29.87 in. Hg (1011 hPa)
ob: KLAX 082153Z 25010KT 10SM CLR 23/16 A2987 RMK AO2 SLP113 T02280156
cycle: 22

Station Type Date Time Source
KLAX TAF 2020/07/08 21:54 UTC NOAA

TAF
AMD KLAX 082050Z 0821/0924 25010KT P6SM FEW016
FM090300 25006KT P6SM SKC
FM090600 VRB03KT 5SM BR BKN009
FM091500 25005KT P6SM OVC010
FM091730 25006KT P6SM SCT010

Example: see airport list